Time;durP1;ratioP1;P1;durP2;ratioP2;P2;SDS_P1;SDS_P2;PMS_P1;PMS_P2;Temp;Humidity;BMP_temperature;BMP_pressure;BME280_temperature;BME280_humidity;BME280_pressure;Samples;Min_cycle;Max_cycle;Signal;HPM_P1;HPM_P2
2022/04/12 00:00:40;;;;;;;7.28;3.95;;;;;;;1.91;68.37;100884.59;4923263;29;20499;-71
2022/04/12 00:03:06;;;;;;;8.85;4.25;;;;;;;1.93;67.71;100882.94;4928603;29;20083;-71
2022/04/12 00:05:33;;;;;;;6.75;3.78;;;;;;;1.92;67.84;100875.97;4927195;29;20040;-71
2022/04/12 00:07:58;;;;;;;6.38;3.80;;;;;;;1.91;68.02;100884.59;4926830;29;20036;-71
2022/04/12 00:10:24;;;;;;;8.60;3.90;;;;;;;1.86;68.26;100881.84;4928983;29;20035;-72
2022/04/12 00:12:49;;;;;;;6.38;3.65;;;;;;;1.80;67.77;100872.94;4925890;29;20055;-71
2022/04/12 00:15:14;;;;;;;7.85;3.90;;;;;;;1.78;68.24;100877.19;4927965;29;20454;-71
2022/04/12 00:20:26;;;;;;;7.38;3.80;;;;;;;1.74;68.32;100877.09;4924730;29;20054;-71
2022/04/12 00:22:56;;;;;;;9.18;4.10;;;;;;;1.77;68.48;100883.25;4926184;29;20044;-71
2022/04/12 00:25:22;;;;;;;9.00;4.32;;;;;;;1.70;68.97;100884.72;4922031;29;20036;-71
2022/04/12 00:27:49;;;;;;;6.50;3.85;;;;;;;1.59;70.52;100878.25;4927682;29;20062;-71
2022/04/12 00:30:15;;;;;;;10.00;4.47;;;;;;;1.57;70.26;100873.00;4911795;29;20044;-71
2022/04/12 00:32:41;;;;;;;8.98;4.30;;;;;;;1.61;70.22;100880.09;4925494;29;20051;-72
2022/04/12 00:35:07;;;;;;;10.07;4.20;;;;;;;1.66;69.75;100873.34;4928378;29;20040;-71
2022/04/12 00:37:32;;;;;;;8.13;4.38;;;;;;;1.69;69.63;100877.75;4926295;29;20496;-71
2022/04/12 00:39:58;;;;;;;6.30;3.60;;;;;;;1.70;69.92;100867.41;4926672;29;20048;-71
2022/04/12 00:42:23;;;;;;;6.82;3.72;;;;;;;1.67;70.13;100869.88;4927935;29;20588;-71
2022/04/12 00:44:48;;;;;;;7.80;3.50;;;;;;;1.68;70.30;100871.69;4925411;29;20503;-71
2022/04/12 00:47:14;;;;;;;7.20;3.80;;;;;;;1.69;69.93;100868.22;4927823;29;20451;-71
2022/04/12 00:49:41;;;;;;;6.18;3.35;;;;;;;1.71;69.88;100863.97;4925064;29;20106;-71
2022/04/12 00:52:07;;;;;;;6.55;3.45;;;;;;;1.69;69.81;100865.63;4927086;29;20050;-71
2022/04/12 00:54:33;;;;;;;7.03;3.88;;;;;;;1.66;69.71;100856.84;4925202;29;20143;-71
2022/04/12 00:56:59;;;;;;;6.38;3.60;;;;;;;1.62;69.46;100866.22;4927550;29;20399;-71
2022/04/12 00:59:25;;;;;;;7.78;3.45;;;;;;;1.51;69.42;100858.06;4925747;29;20039;-71
2022/04/12 01:01:50;;;;;;;8.55;3.88;;;;;;;1.41;70.40;100858.56;4924419;29;20051;-71
2022/04/12 01:04:16;;;;;;;6.35;3.55;;;;;;;1.36;70.63;100856.63;4925183;29;20075;-71
2022/04/12 01:06:42;;;;;;;6.03;3.22;;;;;;;1.35;70.75;100854.88;4927838;29;20043;-71
2022/04/12 01:09:09;;;;;;;11.98;3.78;;;;;;;1.39;70.59;100856.72;4925422;29;20534;-71
2022/04/12 01:11:35;;;;;;;6.85;3.75;;;;;;;1.43;70.12;100861.22;4925784;29;20044;-71
2022/04/12 01:14:01;;;;;;;8.40;4.32;;;;;;;1.44;69.61;100863.91;4927573;29;20035;-71
2022/04/12 01:16:26;;;;;;;7.22;4.07;;;;;;;1.47;69.79;100857.91;4924714;29;20388;-71
2022/04/12 01:18:52;;;;;;;7.38;3.65;;;;;;;1.49;69.98;100858.84;4926838;29;20094;-71
2022/04/12 01:21:17;;;;;;;7.22;3.50;;;;;;;1.43;69.75;100856.03;4926087;29;20036;-70
2022/04/12 01:24:02;;;;;;;8.05;4.30;;;;;;;1.31;70.44;100849.56;4925178;29;20345;-71
2022/04/12 01:26:27;;;;;;;10.73;3.90;;;;;;;1.21;70.37;100860.44;4924675;29;20047;-71
2022/04/12 01:28:53;;;;;;;6.18;3.58;;;;;;;1.19;70.71;100856.91;4924888;29;20040;-71
2022/04/12 01:31:18;;;;;;;7.03;3.70;;;;;;;1.18;71.54;100862.94;4924091;29;20091;-71
2022/04/12 01:33:44;;;;;;;6.63;3.65;;;;;;;1.18;71.09;100856.84;4926870;29;20055;-70
2022/04/12 01:36:09;;;;;;;6.50;3.63;;;;;;;1.17;70.75;100855.94;4925831;29;20043;-71
2022/04/12 01:38:35;;;;;;;8.38;4.20;;;;;;;1.15;70.48;100856.72;4925001;29;20402;-71
2022/04/12 01:41:00;;;;;;;12.23;6.15;;;;;;;1.08;71.79;100853.03;4926972;29;20474;-71
2022/04/12 01:43:25;;;;;;;8.80;4.22;;;;;;;1.13;71.54;100858.38;4924563;29;20039;-70
2022/04/12 01:45:50;;;;;;;6.25;3.80;;;;;;;1.12;71.01;100867.88;4926152;29;20060;-71
2022/04/12 01:48:16;;;;;;;7.18;3.80;;;;;;;1.09;71.56;100863.47;4925816;29;20028;-71
2022/04/12 01:50:41;;;;;;;8.43;4.30;;;;;;;0.99;73.12;100860.47;4924584;29;20050;-71
2022/04/12 01:53:06;;;;;;;13.35;3.88;;;;;;;0.94;73.34;100862.88;4926788;29;20052;-71
2022/04/12 01:55:32;;;;;;;6.95;4.32;;;;;;;0.99;72.96;100860.47;4924442;29;20098;-70
2022/04/12 01:57:57;;;;;;;9.55;4.25;;;;;;;1.06;72.88;100857.28;4925712;29;20119;-71
2022/04/12 02:00:22;;;;;;;9.35;4.82;;;;;;;1.10;72.22;100853.94;4923306;29;20039;-70
2022/04/12 02:02:49;;;;;;;6.18;3.63;;;;;;;1.13;71.84;100856.69;4923247;29;20027;-71
2022/04/12 02:05:14;;;;;;;9.00;4.57;;;;;;;1.05;72.43;100850.31;4926482;29;20040;-70
2022/04/12 02:07:43;;;;;;;7.78;3.95;;;;;;;1.01;72.86;100853.63;4924575;29;20048;-71
2022/04/12 02:10:09;;;;;;;7.45;3.85;;;;;;;0.99;72.90;100850.06;4924859;29;20039;-70
2022/04/12 02:12:34;;;;;;;8.38;4.82;;;;;;;1.01;72.66;100858.81;4926463;29;20039;-71
2022/04/12 02:15:00;;;;;;;7.93;3.75;;;;;;;1.06;72.64;100857.28;4923808;29;20047;-71
2022/04/12 02:17:25;;;;;;;7.47;3.85;;;;;;;1.09;71.94;100852.19;4924696;29;20028;-71
2022/04/12 02:19:51;;;;;;;8.88;4.45;;;;;;;1.12;72.18;100854.88;4925162;29;20055;-70
2022/04/12 02:22:16;;;;;;;8.38;3.85;;;;;;;1.15;71.49;100860.19;4923492;29;20074;-71
2022/04/12 02:24:41;;;;;;;8.13;4.88;;;;;;;1.18;71.81;100852.53;4926547;29;20050;-71
2022/04/12 02:27:06;;;;;;;6.88;4.05;;;;;;;1.19;71.60;100859.50;4923758;29;20043;-71
2022/04/12 02:29:32;;;;;;;6.93;3.55;;;;;;;1.19;71.58;100854.31;4925281;29;20055;-71
2022/04/12 02:31:57;;;;;;;7.25;3.85;;;;;;;1.15;71.26;100846.31;4921346;29;20047;-71
2022/04/12 02:34:22;;;;;;;10.82;4.47;;;;;;;1.12;71.13;100847.09;4923820;29;20040;-71
2022/04/12 02:36:48;;;;;;;6.40;3.50;;;;;;;1.12;70.64;100854.88;4926084;29;20042;-71
2022/04/12 02:39:14;;;;;;;7.75;3.97;;;;;;;1.12;71.12;100856.63;4923904;29;20048;-71
2022/04/12 02:41:39;;;;;;;7.70;3.50;;;;;;;1.08;71.34;100866.03;4924584;29;20058;-71
2022/04/12 02:44:05;;;;;;;7.60;4.13;;;;;;;1.07;70.79;100851.22;4925483;29;20035;-71
2022/04/12 02:46:30;;;;;;;8.85;4.13;;;;;;;1.04;70.78;100854.59;4925065;29;20473;-71
2022/04/12 02:48:55;;;;;;;7.90;4.35;;;;;;;1.01;70.26;100853.63;4923196;29;20055;-70
2022/04/12 02:51:20;;;;;;;7.50;4.22;;;;;;;0.94;70.94;100856.81;4925054;29;20497;-70
2022/04/12 02:53:46;;;;;;;10.15;3.67;;;;;;;0.87;70.91;100860.91;4920881;29;20495;-71
2022/04/12 02:56:12;;;;;;;10.82;3.97;;;;;;;0.90;71.48;100862.72;4925430;29;20054;-71
2022/04/12 02:58:37;;;;;;;6.80;3.55;;;;;;;0.92;71.14;100861.06;4922964;29;20499;-70
2022/04/12 03:01:03;;;;;;;6.35;3.38;;;;;;;0.92;71.61;100858.44;4923125;29;20047;-71
2022/04/12 03:03:28;;;;;;;7.25;4.10;;;;;;;0.90;71.32;100866.22;4923191;29;20028;-70
2022/04/12 03:05:53;;;;;;;8.25;4.20;;;;;;;0.87;71.53;100861.78;4924221;29;20036;-71
2022/04/12 03:08:19;;;;;;;8.00;4.13;;;;;;;0.88;71.72;100867.84;4923316;29;20039;-71
2022/04/12 03:10:44;;;;;;;6.30;3.83;;;;;;;0.88;71.58;100863.53;4925853;29;20044;-71
2022/04/12 03:13:09;;;;;;;9.98;4.45;;;;;;;0.91;71.52;100864.50;4923470;29;20047;-71
2022/04/12 03:15:35;;;;;;;8.55;4.55;;;;;;;0.92;71.31;100863.66;4921423;29;20521;-71
2022/04/12 03:18:00;;;;;;;6.30;4.00;;;;;;;0.93;71.91;100857.66;4921328;29;20070;-71
2022/04/12 03:20:25;;;;;;;9.25;3.85;;;;;;;0.92;71.96;100856.75;4922980;29;20048;-71
2022/04/12 03:22:51;;;;;;;7.72;4.10;;;;;;;0.94;71.55;100860.28;4922207;29;20131;-71
2022/04/12 03:25:16;;;;;;;7.55;4.05;;;;;;;0.94;71.65;100856.81;4924708;29;20039;-70
2022/04/12 03:27:41;;;;;;;8.15;4.47;;;;;;;0.93;71.58;100861.13;4919525;29;20032;-71
2022/04/12 03:30:07;;;;;;;7.75;3.88;;;;;;;0.95;72.20;100859.47;4922284;29;20046;-71
2022/04/12 03:32:33;;;;;;;10.32;5.53;;;;;;;0.98;71.89;100853.50;4923424;29;20059;-71
2022/04/12 03:34:58;;;;;;;9.95;5.90;;;;;;;0.97;71.58;100859.50;4926865;29;20156;-71
2022/04/12 03:37:24;;;;;;;7.18;4.32;;;;;;;0.97;72.00;100857.81;4927970;29;20036;-71
2022/04/12 03:39:51;;;;;;;9.77;4.22;;;;;;;0.98;71.76;100861.31;4928671;29;20151;-70
2022/04/12 03:42:18;;;;;;;9.20;4.43;;;;;;;0.99;72.05;100856.16;4927015;29;20075;-71
2022/04/12 03:44:45;;;;;;;9.25;5.45;;;;;;;0.98;71.65;100862.19;4926806;29;20511;-71
2022/04/12 03:47:10;;;;;;;8.98;4.82;;;;;;;0.95;72.17;100869.00;4928093;29;20620;-71
2022/04/12 03:49:35;;;;;;;7.18;4.35;;;;;;;0.94;72.36;100869.78;4938016;29;20035;-71
2022/04/12 03:52:01;;;;;;;7.53;3.88;;;;;;;0.91;72.43;100867.09;4928863;29;20078;-71
2022/04/12 03:54:26;;;;;;;6.97;4.05;;;;;;;0.93;72.41;100870.63;4926488;29;20040;-71
2022/04/12 03:56:51;;;;;;;8.88;4.03;;;;;;;0.95;72.01;100869.88;4928408;29;20160;-70
2022/04/12 03:59:17;;;;;;;7.90;4.15;;;;;;;0.97;71.97;100868.22;4927710;29;20411;-71
2022/04/12 04:01:42;;;;;;;7.20;4.13;;;;;;;0.96;71.70;100871.63;4920986;29;20038;-71
2022/04/12 04:04:09;;;;;;;6.55;3.90;;;;;;;0.95;72.19;100874.19;4926605;29;20039;-71
2022/04/12 04:06:35;;;;;;;9.70;3.97;;;;;;;0.92;71.97;100869.75;4926355;29;20040;-71
2022/04/12 04:09:00;;;;;;;9.68;4.95;;;;;;;0.91;73.00;100872.28;4927477;29;20091;-71
2022/04/12 04:11:25;;;;;;;6.82;3.60;;;;;;;0.90;72.77;100871.41;4925444;29;20036;-71
2022/04/12 04:13:51;;;;;;;11.68;4.97;;;;;;;0.93;72.54;100873.25;4924942;29;20255;-72
2022/04/12 04:16:17;;;;;;;8.27;4.18;;;;;;;0.95;72.26;100869.00;4922623;29;20036;-71
2022/04/12 04:18:42;;;;;;;9.55;4.15;;;;;;;0.97;72.19;100864.72;4923846;29;20043;-71
2022/04/12 04:21:08;;;;;;;7.85;3.97;;;;;;;1.01;72.37;100872.69;4927127;29;20040;-71
2022/04/12 04:23:33;;;;;;;7.38;3.85;;;;;;;1.07;72.29;100869.44;4926132;29;20040;-71
2022/04/12 04:25:58;;;;;;;6.80;3.95;;;;;;;1.11;72.10;100876.53;4928587;29;20086;-71
2022/04/12 04:28:28;;;;;;;14.27;7.22;;;;;;;1.13;72.08;100879.16;4925975;29;20043;-70
2022/04/12 04:30:54;;;;;;;12.80;5.05;;;;;;;1.15;72.12;100878.41;4925333;29;20044;-70
2022/04/12 04:33:20;;;;;;;8.32;4.25;;;;;;;1.14;72.21;100878.34;4925664;29;20099;-71
2022/04/12 04:35:46;;;;;;;8.07;4.63;;;;;;;1.13;72.33;100887.88;4923964;29;20062;-71
2022/04/12 04:38:12;;;;;;;8.25;4.28;;;;;;;1.19;72.34;100882.03;4925373;29;20068;-70
2022/04/12 04:40:37;;;;;;;7.38;4.50;;;;;;;1.26;72.36;100874.50;4925047;29;20078;-71
2022/04/12 04:43:03;;;;;;;8.85;4.30;;;;;;;1.29;73.06;100877.22;4922517;29;20074;-71
2022/04/12 04:45:28;;;;;;;9.05;5.65;;;;;;;1.36;73.38;100880.03;4924962;29;20494;-70
2022/04/12 04:47:56;;;;;;;7.85;4.68;;;;;;;1.45;73.25;100877.78;4926484;29;20028;-70
2022/04/12 04:50:23;;;;;;;11.63;4.88;;;;;;;1.53;72.88;100877.22;4926618;29;20058;-70
2022/04/12 04:52:49;;;;;;;10.55;5.20;;;;;;;1.63;72.66;100877.56;4927357;29;20071;-71
2022/04/12 04:55:16;;;;;;;8.25;4.47;;;;;;;1.66;72.75;100875.94;4925111;29;20044;-71
2022/04/12 04:57:43;;;;;;;9.35;4.18;;;;;;;1.69;73.10;100876.03;4927367;29;20039;-71
2022/04/12 05:00:17;;;;;;;8.55;4.93;;;;;;;1.78;72.42;100885.00;4924395;29;20052;-71
2022/04/12 05:02:47;;;;;;;8.95;4.95;;;;;;;1.82;73.35;100886.88;4926312;29;20439;-70
2022/04/12 05:05:13;;;;;;;16.88;4.75;;;;;;;1.85;73.76;100889.59;4926544;29;20031;-71
2022/04/12 05:07:40;;;;;;;8.70;4.32;;;;;;;1.97;72.78;100890.91;4918483;29;20171;-72
2022/04/12 05:10:07;;;;;;;8.55;5.20;;;;;;;2.06;72.33;100895.53;4927955;29;20410;-71
2022/04/12 05:12:32;;;;;;;10.90;6.00;;;;;;;2.12;73.14;100876.63;4920770;29;20530;-71
2022/04/12 05:14:57;;;;;;;16.75;7.85;;;;;;;2.22;73.01;100881.31;4921848;29;20068;-71
2022/04/12 05:17:25;;;;;;;17.00;9.30;;;;;;;2.42;72.51;100874.16;4923714;29;20047;-72
2022/04/12 05:19:51;;;;;;;12.57;8.68;;;;;;;2.53;72.40;100875.38;4923939;29;20039;-71
2022/04/12 05:22:17;;;;;;;12.25;6.85;;;;;;;2.61;71.69;100876.50;4926981;29;20566;-71
2022/04/12 05:24:42;;;;;;;12.48;8.18;;;;;;;2.73;71.36;100883.81;4925847;29;20120;-71
2022/04/12 05:27:07;;;;;;;12.98;6.43;;;;;;;2.82;71.39;100878.88;4924998;29;20043;-73
2022/04/12 05:29:33;;;;;;;7.70;4.82;;;;;;;2.91;70.88;100891.34;4926552;29;20074;-71
2022/04/12 05:31:58;;;;;;;8.43;4.70;;;;;;;2.95;70.41;100890.56;4921096;29;20044;-71
2022/04/12 05:34:23;;;;;;;7.22;4.20;;;;;;;3.01;70.76;100884.66;4924713;29;20036;-71
2022/04/12 05:36:49;;;;;;;8.50;4.55;;;;;;;3.08;70.48;100895.31;4923891;29;20036;-71
2022/04/12 05:39:14;;;;;;;7.88;4.22;;;;;;;3.18;69.91;100896.50;4923444;29;20039;-71
2022/04/12 05:41:39;;;;;;;6.72;3.70;;;;;;;3.27;69.42;100890.66;4921453;29;20040;-71
2022/04/12 05:44:05;;;;;;;7.25;4.03;;;;;;;3.33;68.84;100896.06;4921086;29;20047;-71
2022/04/12 05:46:30;;;;;;;7.72;4.20;;;;;;;3.38;69.50;100899.69;4923188;29;20102;-71
2022/04/12 05:48:55;;;;;;;9.55;4.10;;;;;;;3.42;69.43;100900.66;4924385;29;20553;-71
2022/04/12 05:51:21;;;;;;;7.80;4.53;;;;;;;3.45;69.28;100899.00;4917454;29;20040;-71
2022/04/12 05:53:46;;;;;;;7.35;3.88;;;;;;;3.51;68.57;100901.81;4924075;29;20446;-71
2022/04/12 05:56:11;;;;;;;9.15;4.10;;;;;;;3.60;68.79;100900.28;4924470;29;20526;-71
2022/04/12 05:58:39;;;;;;;9.00;4.03;;;;;;;3.66;68.33;100895.22;4924928;29;20040;-72
2022/04/12 06:01:04;;;;;;;8.65;3.97;;;;;;;3.74;68.18;100891.09;4923560;29;20031;-71
2022/04/12 06:03:29;;;;;;;8.25;3.45;;;;;;;3.80;68.37;100893.91;4923517;29;20066;-71
2022/04/12 06:05:55;;;;;;;8.02;4.20;;;;;;;3.92;68.28;100890.72;4920213;29;20043;-71
2022/04/12 06:08:20;;;;;;;7.30;4.28;;;;;;;4.08;67.92;100894.63;4925903;29;20050;-71
2022/04/12 06:10:45;;;;;;;10.75;4.15;;;;;;;4.17;67.68;100895.75;4925144;29;20055;-71
2022/04/12 06:13:11;;;;;;;9.25;5.15;;;;;;;4.31;67.54;100896.09;4922495;29;20499;-71
2022/04/12 06:15:36;;;;;;;7.72;4.43;;;;;;;4.43;67.08;100908.59;4926520;29;20036;-71
2022/04/12 06:18:01;;;;;;;9.57;5.38;;;;;;;4.54;66.97;100916.69;4907976;29;20059;-71
2022/04/12 06:20:27;;;;;;;8.07;4.15;;;;;;;4.64;66.47;100913.47;4917912;29;20418;-71
2022/04/12 06:22:53;;;;;;;6.50;3.75;;;;;;;4.71;66.39;100907.50;4916414;29;20031;-72
2022/04/12 06:25:22;;;;;;;7.90;3.95;;;;;;;4.83;66.39;100912.16;4926020;29;20044;-72
2022/04/12 06:27:52;;;;;;;11.40;4.00;;;;;;;4.92;65.83;100909.72;4922691;29;20455;-72
2022/04/12 06:30:20;;;;;;;7.25;3.97;;;;;;;5.04;65.51;100909.16;4921977;29;20051;-71
2022/04/12 06:32:46;;;;;;;9.40;4.80;;;;;;;5.20;65.41;100911.25;4924349;29;20518;-71
2022/04/12 06:35:13;;;;;;;7.28;3.53;;;;;;;5.38;65.10;100920.34;4924182;29;20067;-72
2022/04/12 06:37:40;;;;;;;6.50;4.28;;;;;;;5.54;64.61;100922.44;4922232;29;20087;-71
2022/04/12 06:40:07;;;;;;;7.13;4.45;;;;;;;5.71;64.35;100923.66;4925430;29;20541;-71
2022/04/12 06:42:33;;;;;;;8.65;4.20;;;;;;;5.83;64.17;100924.75;4915745;29;20071;-71
2022/04/12 06:44:58;;;;;;;7.82;4.20;;;;;;;5.96;63.97;100929.41;4916461;29;20435;-71
2022/04/12 06:47:23;;;;;;;7.05;4.30;;;;;;;6.10;63.85;100925.31;4926063;29;20035;-72
2022/04/12 06:49:50;;;;;;;9.55;4.50;;;;;;;6.28;63.60;100910.75;4919456;29;20091;-71
2022/04/12 06:52:18;;;;;;;7.90;3.72;;;;;;;6.39;63.06;100901.31;4922376;29;20040;-71
2022/04/12 06:54:44;;;;;;;8.38;4.03;;;;;;;6.52;62.71;100908.56;4919979;29;20436;-72
2022/04/12 06:57:10;;;;;;;7.30;4.35;;;;;;;6.69;62.71;100900.06;4922517;29;20142;-72
2022/04/12 06:59:36;;;;;;;10.07;5.45;;;;;;;6.85;62.53;100902.06;4924803;29;20503;-72
2022/04/12 07:02:02;;;;;;;9.98;4.88;;;;;;;7.01;61.93;100897.91;4923088;29;20088;-72
2022/04/12 07:04:28;;;;;;;9.45;4.78;;;;;;;7.16;61.57;100902.50;4924627;29;20043;-72
2022/04/12 07:06:53;;;;;;;7.57;4.47;;;;;;;7.34;61.01;100905.38;4923567;29;20032;-72
2022/04/12 07:09:20;;;;;;;12.32;4.60;;;;;;;7.50;60.92;100905.56;4924233;29;20406;-72
2022/04/12 07:11:59;;;;;;;9.18;4.65;;;;;;;7.67;60.21;100898.75;4925414;29;20040;-72
2022/04/12 07:14:25;;;;;;;8.73;4.72;;;;;;;7.80;59.30;100902.41;4920460;29;20044;-72
2022/04/12 07:16:51;;;;;;;6.93;3.80;;;;;;;7.96;59.78;100899.06;4925237;29;20036;-72
2022/04/12 07:19:16;;;;;;;6.70;4.10;;;;;;;8.10;58.49;100901.88;4922805;29;20072;-72
2022/04/12 07:21:42;;;;;;;7.78;4.50;;;;;;;8.25;58.49;100901.09;4919315;29;20062;-72
2022/04/12 07:24:07;;;;;;;8.57;4.38;;;;;;;8.37;58.30;100903.88;4921676;29;20059;-72
2022/04/12 07:26:33;;;;;;;8.98;3.78;;;;;;;8.50;58.00;100905.75;4923128;29;20044;-72
2022/04/12 07:28:59;;;;;;;6.68;3.58;;;;;;;8.63;57.74;100908.50;4925693;29;20035;-72
2022/04/12 07:31:25;;;;;;;9.55;4.30;;;;;;;8.69;56.94;100905.91;4919068;29;20115;-72
2022/04/12 07:33:51;;;;;;;6.78;3.75;;;;;;;8.75;57.39;100904.22;4921952;29;20036;-72
2022/04/12 07:36:16;;;;;;;10.38;4.00;;;;;;;8.91;56.97;100904.31;4923861;29;20040;-72
2022/04/12 07:38:42;;;;;;;7.72;3.38;;;;;;;8.94;56.42;100899.06;4921118;29;20047;-72
2022/04/12 07:41:08;;;;;;;7.80;3.30;;;;;;;8.98;55.77;100899.06;4925353;29;20043;-72
2022/04/12 07:43:34;;;;;;;7.68;3.45;;;;;;;9.04;56.13;100898.25;4923386;29;20414;-72
2022/04/12 07:45:59;;;;;;;6.55;3.63;;;;;;;9.09;55.58;100899.16;4922871;29;20036;-72
2022/04/12 07:48:24;;;;;;;10.70;3.60;;;;;;;9.17;55.36;100904.47;4924614;29;20561;-72
2022/04/12 07:50:50;;;;;;;13.88;4.43;;;;;;;9.31;55.90;100915.09;4919398;29;20126;-72
2022/04/12 07:53:15;;;;;;;10.77;4.35;;;;;;;9.46;55.40;100912.53;4923432;29;20051;-72
2022/04/12 07:55:40;;;;;;;8.35;3.60;;;;;;;9.53;54.92;100918.69;4923197;29;20042;-72
2022/04/12 07:58:06;;;;;;;8.43;3.33;;;;;;;9.61;54.47;100912.56;4923815;29;20075;-72
2022/04/12 08:00:31;;;;;;;8.35;3.40;;;;;;;9.79;54.74;100919.66;4924253;29;20055;-72
2022/04/12 08:02:56;;;;;;;10.13;4.18;;;;;;;9.95;54.72;100914.44;4921569;29;20044;-72
2022/04/12 08:05:22;;;;;;;6.72;3.00;;;;;;;10.12;53.36;100923.28;4925089;29;20036;-72
2022/04/12 08:07:47;;;;;;;7.82;3.50;;;;;;;10.23;53.21;100912.75;4923310;29;20036;-72
2022/04/12 08:10:22;;;;;;;5.70;2.97;;;;;;;10.48;53.19;100905.78;4921615;29;20521;-72
2022/04/12 08:12:47;;;;;;;9.30;3.72;;;;;;;10.74;52.19;100900.44;4920552;29;20032;-72
2022/04/12 08:15:14;;;;;;;9.77;4.38;;;;;;;10.96;52.15;100894.28;4919271;29;20059;-72
2022/04/12 08:17:40;;;;;;;9.60;4.25;;;;;;;11.18;51.32;100899.50;4922142;29;20507;-72
2022/04/12 08:20:07;;;;;;;7.43;3.00;;;;;;;11.24;50.48;100901.25;4924726;29;20074;-72
2022/04/12 08:22:32;;;;;;;6.78;3.30;;;;;;;11.44;50.94;100906.47;4925686;29;20035;-72
2022/04/12 08:24:59;;;;;;;6.07;3.10;;;;;;;11.68;49.99;100903.72;4927553;29;20450;-72
2022/04/12 08:27:25;;;;;;;5.75;2.95;;;;;;;11.88;49.49;100897.50;4927516;29;20089;-72
2022/04/12 08:29:50;;;;;;;8.55;3.53;;;;;;;12.06;48.29;100897.38;4925943;29;20132;-72
2022/04/12 08:32:16;;;;;;;8.77;3.70;;;;;;;12.19;48.16;100893.75;4928332;29;20126;-72
2022/04/12 08:34:42;;;;;;;9.23;3.50;;;;;;;12.43;48.25;100889.19;4922894;29;20063;-72
2022/04/12 08:37:07;;;;;;;5.32;3.38;;;;;;;12.59;47.01;100898.75;4921987;29;20028;-72
2022/04/12 08:39:32;;;;;;;7.53;3.30;;;;;;;12.79;46.85;100889.75;4923718;29;20036;-72
2022/04/12 08:41:59;;;;;;;7.55;2.75;;;;;;;12.99;46.95;100895.72;4928087;29;20443;-73
2022/04/12 08:44:25;;;;;;;11.80;3.85;;;;;;;13.21;46.25;100899.03;4926050;29;20036;-72
2022/04/12 08:46:50;;;;;;;8.25;3.65;;;;;;;13.32;45.75;100891.84;4926868;29;20660;-72
2022/04/12 08:49:16;;;;;;;6.97;3.42;;;;;;;13.37;45.57;100889.16;4924215;29;20115;-72
2022/04/12 08:51:42;;;;;;;7.25;4.22;;;;;;;13.55;45.75;100894.22;4922184;29;20122;-72
2022/04/12 08:54:09;;;;;;;8.82;4.75;;;;;;;13.69;45.17;100886.09;4929550;29;20038;-72
2022/04/12 08:56:35;;;;;;;8.32;4.85;;;;;;;13.83;45.03;100888.53;4922897;29;20587;-72
2022/04/12 08:59:00;;;;;;;7.07;5.03;;;;;;;14.01;44.89;100882.09;4926463;29;20055;-72
2022/04/12 09:01:25;;;;;;;7.65;4.20;;;;;;;14.15;44.44;100873.97;4924071;29;20040;-72
2022/04/12 09:03:51;;;;;;;8.25;3.63;;;;;;;14.18;44.25;100873.91;4922303;29;20058;-73
2022/04/12 09:06:16;;;;;;;9.05;4.25;;;;;;;14.27;43.80;100876.41;4923514;29;20055;-73
2022/04/12 09:08:42;;;;;;;5.43;2.90;;;;;;;14.25;42.46;100875.53;4920897;29;20510;-72
2022/04/12 09:11:08;;;;;;;6.78;3.80;;;;;;;14.32;42.65;100866.59;4926888;29;20412;-72
2022/04/12 09:13:38;;;;;;;13.82;7.15;;;;;;;14.39;44.03;100870.91;4924762;29;20586;-72
2022/04/12 09:16:08;;;;;;;9.73;6.80;;;;;;;14.51;43.60;100871.59;4925245;29;20044;-72
2022/04/12 09:18:35;;;;;;;11.45;7.72;;;;;;;14.68;43.59;100864.25;4925432;29;20435;-72
2022/04/12 09:21:17;;;;;;;11.25;7.20;;;;;;;14.87;42.72;100864.78;4919606;29;20091;-72
2022/04/12 09:23:44;;;;;;;;;;;;;;;14.90;40.70;100867.38;4925335;29;20040;-72
2022/04/12 09:26:15;;;;;;;10.50;7.22;;;;;;;15.02;42.00;100858.31;4924620;29;19922;-72
2022/04/12 09:28:41;;;;;;;9.10;5.28;;;;;;;15.07;40.26;100857.31;4926123;29;20082;-72
2022/04/12 09:31:14;;;;;;;10.57;6.35;;;;;;;15.21;40.66;100853.50;4926796;29;20039;-72
2022/04/12 09:33:41;;;;;;;7.60;5.63;;;;;;;15.41;40.56;100850.44;4922002;29;20386;-72
2022/04/12 09:36:07;;;;;;;8.82;5.90;;;;;;;15.49;39.56;100856.47;4925776;29;20035;-72
2022/04/12 09:38:33;;;;;;;8.45;3.42;;;;;;;15.44;38.64;100856.56;4918188;29;20142;-72
2022/04/12 09:41:19;;;;;;;8.02;5.93;;;;;;;15.51;38.35;100850.22;4927056;29;20071;-72
2022/04/12 09:43:55;;;;;;;10.90;6.57;;;;;;;15.71;37.58;100846.28;4927281;29;20047;-73
2022/04/12 09:46:22;;;;;;;6.32;4.50;;;;;;;15.78;38.10;100847.88;4925812;29;20067;-72
2022/04/12 09:48:48;;;;;;;10.88;5.60;;;;;;;15.96;38.58;100849.25;4924070;29;20042;-72
2022/04/12 09:51:15;;;;;;;5.63;3.90;;;;;;;16.15;37.82;100852.34;4923440;29;20039;-73
2022/04/12 09:53:42;;;;;;;7.07;4.13;;;;;;;16.30;37.32;100833.34;4924994;29;20043;-72
2022/04/12 09:56:21;;;;;;;9.52;4.97;;;;;;;16.44;36.77;100835.66;4925150;29;20040;-72
2022/04/12 09:58:49;;;;;;;8.27;4.93;;;;;;;16.54;36.45;100830.97;4921833;29;20533;-73
2022/04/12 10:01:16;;;;;;;7.07;3.17;;;;;;;16.36;34.84;100824.31;4925055;29;20095;-72
2022/04/12 10:03:52;;;;;;;7.05;4.13;;;;;;;16.47;35.87;100827.56;4926793;29;20035;-73
2022/04/12 10:06:21;;;;;;;9.00;3.70;;;;;;;16.71;35.68;100826.03;4920691;29;20050;-72
2022/04/12 10:08:51;;;;;;;8.48;3.03;;;;;;;16.93;35.29;100818.38;4921818;29;20035;-72
2022/04/12 10:11:17;;;;;;;4.72;2.47;;;;;;;17.10;32.55;100804.56;4920812;29;20059;-73
2022/04/12 10:13:44;;;;;;;5.45;2.67;;;;;;;16.97;30.81;100812.03;4925559;29;20047;-72
2022/04/12 10:16:09;;;;;;;6.32;3.38;;;;;;;17.14;32.47;100805.38;4925900;29;20047;-73
2022/04/12 10:18:35;;;;;;;7.32;3.10;;;;;;;17.32;31.22;100802.16;4924146;29;20039;-73
2022/04/12 10:21:00;;;;;;;4.78;2.22;;;;;;;17.50;31.80;100804.28;4922694;29;20035;-73
2022/04/12 10:23:27;;;;;;;5.25;2.50;;;;;;;17.65;30.31;100796.72;4924276;29;20047;-72
2022/04/12 10:25:57;;;;;;;4.53;2.20;;;;;;;17.57;29.67;100793.41;4922104;29;20043;-72
2022/04/12 10:28:25;;;;;;;5.40;3.33;;;;;;;17.74;30.43;100794.63;4923698;29;20031;-73
2022/04/12 10:30:50;;;;;;;8.05;3.90;;;;;;;17.95;30.69;100789.56;4924100;29;20075;-73
2022/04/12 10:33:15;;;;;;;3.97;2.20;;;;;;;18.01;29.00;100780.47;4922494;29;20072;-72
2022/04/12 10:35:44;;;;;;;5.75;2.15;;;;;;;17.97;27.53;100787.69;4923897;29;20036;-73
2022/04/12 10:38:14;;;;;;;6.70;3.47;;;;;;;18.19;29.08;100787.88;4919146;29;20028;-73
2022/04/12 10:40:44;;;;;;;4.90;2.15;;;;;;;18.17;27.77;100787.06;4915593;29;20039;-72
2022/04/12 10:43:14;;;;;;;3.95;1.88;;;;;;;18.28;27.10;100794.69;4913577;29;20028;-73
2022/04/12 10:45:48;;;;;;;5.65;2.03;;;;;;;18.28;28.11;100787.56;4914675;29;20040;-72
2022/04/12 10:48:24;;;;;;;7.18;2.67;;;;;;;18.36;19.96;100779.28;4914695;29;20501;-73
2022/04/12 10:50:52;;;;;;;6.57;2.60;;;;;;;18.44;29.12;100779.00;4919380;29;20764;-73
2022/04/12 10:53:36;;;;;;;3.92;1.88;;;;;;;18.14;26.03;100781.81;4921938;29;20043;-72
2022/04/12 10:56:05;;;;;;;3.78;1.80;;;;;;;18.16;27.15;100774.63;4922410;29;20055;-72
2022/04/12 10:58:35;;;;;;;4.75;2.33;;;;;;;18.20;27.96;100773.59;4925709;29;20495;-72
2022/04/12 11:01:01;;;;;;;5.90;2.25;;;;;;;18.29;27.13;100773.28;4917494;29;20066;-73
2022/04/12 11:03:53;;;;;;;3.20;1.80;;;;;;;18.02;25.85;100774.19;4921526;29;20043;-73
2022/04/12 11:06:24;;;;;;;4.97;2.08;;;;;;;18.31;27.32;100782.13;4923456;29;20044;-73
2022/04/12 11:08:51;;;;;;;4.65;2.50;;;;;;;18.56;26.83;100776.78;4922785;29;20067;-73
2022/04/12 11:11:26;;;;;;;5.15;2.83;;;;;;;18.74;27.03;100777.94;4924744;29;20040;-73
2022/04/12 11:13:52;;;;;;;5.80;2.20;;;;;;;18.91;26.09;100777.34;4925920;29;20126;-73
2022/04/12 11:16:20;;;;;;;3.95;2.38;;;;;;;19.07;26.75;100777.66;4923141;29;20135;-73
2022/04/12 11:18:56;;;;;;;3.67;2.17;;;;;;;18.95;24.90;100770.97;4924575;29;20044;-73
2022/04/12 11:21:24;;;;;;;5.15;2.63;;;;;;;18.63;25.61;100766.75;4920612;29;20043;-73
2022/04/12 11:24:04;;;;;;;5.20;2.40;;;;;;;18.58;26.13;100766.06;4922446;29;20076;-73
2022/04/12 11:26:38;;;;;;;3.60;2.20;;;;;;;18.83;26.28;100772.28;4920809;29;20130;-73
2022/04/12 11:29:12;;;;;;;5.97;3.00;;;;;;;19.05;25.41;100771.50;4920463;29;20043;-73